Wilson, WY

9:25 AM MST on February 12, 2016 (GMT -0700)
MesoWest | | Change Station
CLOSE
Current Station
Personal Weather Station
Location: Wilson, WY
Elevation: 8200 ft
Nearby Weather Stations

Elev 8200 ft 43.52 °N, 110.91 °W | Updated 1 hour ago

Overcast
Overcast
30.0 °F
Feels Like 30.0 °F
N
0.0
Wind Variable Wind from North
Gusts 0.0 mph

Today
High -- | Low -- °F
--% Chance of Precip.
Yesterday
High -- | Low -- °F
Precip. -- in
Pressure 30.37 in
Visibility 0.2 miles
Clouds Overcast 200 ft
Dew Point Not available.
Humidity Not available.
Rainfall in
Snow Depth Not available.
7:26 AM 5:49 PM
Waxing Crescent, 21% visible
METAR KJAC 121557Z 00000KT 1/4SM OVC002 M06/M06 A3037
Pressure 30.37 in
Visibility 0.2 miles
Clouds Overcast 200 ft
Dew Point Not available.
Humidity Not available.
Rainfall in
Snow Depth Not available.
7:26 AM 5:49 PM
Waxing Crescent, 21% visible
METAR KJAC 121557Z 00000KT 1/4SM OVC002 M06/M06 A3037

10-Day Weather Forecast

Almanac

Astronomy

Feb. 12, 2016 Rise Set
Actual Time
Civil Twilight
Nautical Twilight
Astronomical Twilight
Moon
Length of Visible Light
Length of Day
Tomorrow will be .
, % of the Moon is Illuminated

Today's Extremes

State Highs State Lows

Community

WunderPhotos

Upload Photos

1,892,350 photos uploaded!

WunderBlog® & News

Nearby

Air Quality

  Air Quality AQ Index Pollutant
Not available.

Snow Depth

Station Depth Elevation

Earthquake Activity

City Distance Mag. Time & Date
Minimum magnitude displayed is 2.5.

Coastal Water Temperatures

Place Temperature

Stations

Nearby Weather Stations

Station Location Temp. Windchill Dew Point Humidity Wind Precip. Elev Updated Type
                   

Watches & Warnings

There are currently no watches in effect.